| time (UTC) | temp C | wind direction | speed KPH | gust KPH | rain 1hr cm | rain 24hr cm | rain mn cm | humidity % | barometer mb |
| 20260507225205 | 10 | 270 | 20.9 | 37.0 | 0.00 | 0.23 | 0.08 | 78 | 1012.8 |
| 20260507224705 | 10 | 270 | 20.9 | 37.0 | 0.00 | 0.23 | 0.08 | 78 | 1012.7 |
| 20260507224204 | 10 | 270 | 20.9 | 37.0 | 0.00 | 0.23 | 0.08 | 77 | 1012.7 |
| 20260507223704 | 10 | 270 | 20.9 | 37.0 | 0.00 | 0.23 | 0.08 | 78 | 1012.4 |
| 20260507223204 | 10 | 270 | 20.9 | 37.0 | 0.00 | 0.23 | 0.08 | 76 | 1012.3 |
| 20260507222205 | 10 | 270 | 20.9 | 37.0 | 0.00 | 0.23 | 0.08 | 74 | 1012.2 |
| 20260507221704 | 10 | 270 | 20.9 | 37.0 | 0.00 | 0.23 | 0.08 | 75 | 1012.1 |
| 20260507221205 | 10 | 270 | 20.9 | 37.0 | 0.00 | 0.23 | 0.08 | 77 | 1012.1 |
| 20260507220704 | 10 | 270 | 20.9 | 37.0 | 0.00 | 0.23 | 0.08 | 77 | 1012.0 |
| 20260507220204 | 10 | 270 | 14.5 | 37.0 | 0.00 | 0.23 | 0.08 | 76 | 1011.9 |
| 20260507215704 | 10 | 290 | 9.7 | 9.7 | 0.00 | 0.23 | 0.08 | 77 | 1012.2 |
| 20260507215204 | 10 | 290 | 9.7 | 9.7 | 0.00 | 0.23 | 0.08 | 78 | 1012.0 |
| 20260507213704 | 10 | 290 | 9.7 | 9.7 | 0.00 | 0.23 | 0.08 | 78 | 1011.9 |
| 20260507213204 | 10 | 290 | 9.7 | 9.7 | 0.00 | 0.23 | 0.08 | 80 | 1011.7 |
| 20260507212204 | 9 | 290 | 9.7 | 9.7 | 0.00 | 0.23 | 0.08 | 82 | 1011.6 |
| 20260507211704 | 9 | 290 | 9.7 | 9.7 | 0.00 | 0.23 | 0.08 | 83 | 1011.7 |
| 20260507211204 | 8 | 290 | 9.7 | 9.7 | 0.00 | 0.23 | 0.08 | 83 | 1011.7 |
| 20260507210705 | 8 | 290 | 9.7 | 9.7 | 0.00 | 0.23 | 0.08 | 83 | 1011.6 |
| 20260507210204 | 8 | 289 | 9.7 | 11.3 | 0.00 | 0.23 | 0.08 | 83 | 1011.7 |
| 20260507205704 | 8 | 280 | 11.3 | 11.3 | 0.00 | 0.23 | 0.08 | 83 | 1011.9 |
| 20260507205204 | 9 | 280 | 11.3 | 11.3 | 0.00 | 0.23 | 0.08 | 83 | 1012.0 |
| 20260507203705 | 10 | 280 | 11.3 | 11.3 | 0.00 | 0.23 | 0.08 | 84 | 1011.8 |
| 20260507202705 | 10 | 280 | 11.3 | 11.3 | 0.00 | 0.23 | 0.08 | 85 | 1011.5 |
| 20260507202204 | 10 | 280 | 11.3 | 11.3 | 0.00 | 0.23 | 0.08 | 84 | 1011.4 |
| 20260507201705 | 10 | 280 | 11.3 | 11.3 | 0.00 | 0.23 | 0.08 | 85 | 1011.3 |
| 20260507201205 | 10 | 280 | 11.3 | 11.3 | 0.00 | 0.23 | 0.08 | 84 | 1011.3 |
| 20260507200705 | 10 | 280 | 11.3 | 11.3 | 0.00 | 0.23 | 0.08 | 84 | 1011.2 |
| 20260507200204 | 10 | 281 | 9.7 | 11.3 | 0.00 | 0.23 | 0.08 | 85 | 1011.4 |
| 20260507195704 | 10 | 300 | 9.7 | 9.7 | 0.00 | 0.23 | 0.08 | 85 | 1011.4 |
| 20260507195204 | 10 | 300 | 9.7 | 9.7 | 0.00 | 0.23 | 0.08 | 84 | 1011.3 |
| 20260507194705 | 10 | 300 | 9.7 | 9.7 | 0.00 | 0.23 | 0.08 | 84 | 1011.3 |
| 20260507194204 | 10 | 300 | 9.7 | 9.7 | 0.00 | 0.23 | 0.08 | 83 | 1011.2 |
| 20260507193705 | 10 | 300 | 9.7 | 9.7 | 0.00 | 0.23 | 0.08 | 83 | 1011.3 |
| 20260507192704 | 10 | 300 | 9.7 | 9.7 | 0.00 | 0.23 | 0.08 | 84 | 1011.3 |
| 20260507192205 | 10 | 300 | 9.7 | 9.7 | 0.00 | 0.23 | 0.08 | 85 | 1011.4 |
| 20260507191704 | 10 | 300 | 9.7 | 9.7 | 0.00 | 0.23 | 0.08 | 85 | 1011.4 |
| 20260507191204 | 10 | 300 | 9.7 | 9.7 | 0.00 | 0.23 | 0.08 | 84 | 1011.3 |
| 20260507190204 | 11 | 298 | 11.3 | 14.5 | 0.00 | 0.23 | 0.08 | 84 | 1011.5 |
| 20260507185705 | 11 | 280 | 14.5 | 14.5 | 0.00 | 0.23 | 0.08 | 84 | 1011.7 |
| 20260507185205 | 11 | 280 | 14.5 | 14.5 | 0.00 | 0.23 | 0.08 | 83 | 1011.8 |
| 20260507184705 | 11 | 280 | 14.5 | 14.5 | 0.00 | 0.23 | 0.08 | 82 | 1011.6 |
| 20260507184204 | 12 | 280 | 14.5 | 14.5 | 0.00 | 0.23 | 0.08 | 82 | 1011.7 |
| 20260507182705 | 12 | 280 | 14.5 | 14.5 | 0.00 | 0.23 | 0.08 | 80 | 1011.5 |
| 20260507182204 | 12 | 280 | 14.5 | 14.5 | 0.00 | 0.23 | 0.08 | 79 | 1011.5 |
| 20260507181207 | 13 | 280 | 14.5 | 14.5 | 0.00 | 0.23 | 0.08 | 79 | 1011.6 |
| 20260507180705 | 13 | 280 | 14.5 | 14.5 | 0.00 | 0.23 | 0.08 | 76 | 1011.5 |
| 20260507180204 | 14 | 282 | 14.5 | 14.5 | 0.00 | 0.23 | 0.08 | 76 | 1011.6 |
| 20260507175204 | 14 | 330 | 12.9 | 12.9 | 0.00 | 0.23 | 0.08 | 78 | 1011.5 |
| 20260507174704 | 14 | 330 | 12.9 | 12.9 | 0.00 | 0.23 | 0.08 | 80 | 1011.5 |
| 20260507173705 | 14 | 330 | 12.9 | 12.9 | 0.00 | 0.23 | 0.08 | 77 | 1011.4 |
| 20260507173205 | 14 | 330 | 12.9 | 12.9 | 0.00 | 0.23 | 0.08 | 78 | 1011.5 |
| 20260507172704 | 14 | 330 | 12.9 | 12.9 | 0.00 | 0.23 | 0.08 | 79 | 1011.4 |
| 20260507172204 | 14 | 330 | 12.9 | 12.9 | 0.00 | 0.23 | 0.08 | 79 | 1011.4 |
| 20260507171705 | 14 | 330 | 12.9 | 12.9 | 0.00 | 0.23 | 0.08 | 79 | 1011.4 |
| 20260507171204 | 13 | 330 | 12.9 | 12.9 | 0.00 | 0.23 | 0.08 | 80 | 1011.4 |
| 20260507170704 | 13 | 330 | 12.9 | 12.9 | 0.00 | 0.23 | 0.08 | 80 | 1011.3 |
| 20260507170207 | 14 | 329 | 9.7 | 12.9 | 0.00 | 0.23 | 0.08 | 79 | 1011.4 |
| 20260507165204 | 15 | 290 | 8.0 | 8.0 | 0.00 | 0.25 | 0.08 | 78 | 1011.3 |
| 20260507164704 | 15 | 290 | 8.0 | 8.0 | 0.00 | 0.25 | 0.08 | 77 | 1011.3 |
| 20260507164205 | 15 | 290 | 8.0 | 8.0 | 0.00 | 0.25 | 0.08 | 76 | 1011.3 |
| 20260507163704 | 15 | 290 | 8.0 | 8.0 | 0.00 | 0.25 | 0.08 | 78 | 1011.1 |
| 20260507163204 | 15 | 290 | 8.0 | 8.0 | 0.00 | 0.25 | 0.08 | 78 | 1011.2 |
| 20260507162704 | 15 | 290 | 8.0 | 8.0 | 0.00 | 0.25 | 0.08 | 77 | 1011.2 |
| 20260507162204 | 15 | 290 | 8.0 | 8.0 | 0.00 | 0.25 | 0.08 | 79 | 1011.2 |
| 20260507161704 | 15 | 290 | 8.0 | 8.0 | 0.00 | 0.25 | 0.08 | 78 | 1011.1 |
| 20260507161204 | 15 | 290 | 8.0 | 8.0 | 0.00 | 0.25 | 0.08 | 78 | 1011.0 |
| 20260507160705 | 15 | 290 | 8.0 | 8.0 | 0.00 | 0.25 | 0.08 | 78 | 1011.1 |
| 20260507160205 | 15 | 290 | 9.7 | 11.3 | 0.00 | 0.25 | 0.08 | 80 | 1011.2 |
| 20260507155704 | 14 | 290 | 11.3 | 11.3 | 0.00 | 0.25 | 0.08 | 81 | 1011.2 |
| 20260507155204 | 15 | 290 | 11.3 | 11.3 | 0.00 | 0.25 | 0.08 | 80 | 1011.3 |
| 20260507154705 | 14 | 290 | 11.3 | 11.3 | 0.00 | 0.25 | 0.08 | 83 | 1011.2 |
| 20260507154205 | 14 | 290 | 11.3 | 11.3 | 0.00 | 0.25 | 0.08 | 80 | 1011.2 |
| 20260507153705 | 14 | 290 | 11.3 | 11.3 | 0.00 | 0.25 | 0.08 | 80 | 1011.3 |
| 20260507153204 | 14 | 290 | 11.3 | 11.3 | 0.00 | 0.25 | 0.08 | 81 | 1011.3 |
| 20260507152705 | 15 | 290 | 11.3 | 11.3 | 0.00 | 0.25 | 0.08 | 82 | 1011.2 |
| 20260507152205 | 15 | 290 | 11.3 | 11.3 | 0.00 | 0.25 | 0.08 | 81 | 1011.2 |
| 20260507151204 | 15 | 290 | 11.3 | 11.3 | 0.00 | 0.25 | 0.08 | 82 | 1011.2 |
| 20260507150705 | 15 | 290 | 11.3 | 11.3 | 0.00 | 0.25 | 0.08 | 83 | 1011.2 |
| 20260507150205 | 14 | 290 | 9.7 | 11.3 | 0.00 | 0.25 | 0.08 | 84 | 1011.1 |
| 20260507145704 | 15 | 290 | 8.0 | 8.0 | 0.00 | 0.25 | 0.08 | 82 | 1011.0 |
| 20260507145204 | 15 | 290 | 8.0 | 8.0 | 0.00 | 0.25 | 0.08 | 82 | 1011.2 |
| 20260507144704 | 15 | 290 | 8.0 | 8.0 | 0.00 | 0.25 | 0.08 | 81 | 1011.2 |
| 20260507144204 | 15 | 290 | 8.0 | 8.0 | 0.00 | 0.25 | 0.08 | 82 | 1011.3 |
| 20260507143704 | 15 | 290 | 8.0 | 8.0 | 0.00 | 0.25 | 0.08 | 82 | 1011.2 |
| 20260507142204 | 15 | 290 | 8.0 | 8.0 | 0.00 | 0.25 | 0.08 | 83 | 1011.0 |
| 20260507141705 | 15 | 290 | 8.0 | 8.0 | 0.00 | 0.25 | 0.08 | 86 | 1011.2 |
| 20260507141205 | 15 | 290 | 8.0 | 8.0 | 0.00 | 0.25 | 0.08 | 86 | 1011.1 |
| 20260507140704 | 14 | 290 | 8.0 | 8.0 | 0.00 | 0.25 | 0.08 | 88 | 1011.2 |
| 20260507140204 | 14 | 290 | 9.7 | 11.3 | 0.00 | 0.25 | 0.08 | 88 | 1011.3 |
| 20260507135205 | 14 | 290 | 11.3 | 11.3 | 0.00 | 0.25 | 0.08 | 87 | 1011.0 |
| 20260507134705 | 14 | 290 | 11.3 | 11.3 | 0.00 | 0.25 | 0.08 | 87 | 1011.1 |
| 20260507133204 | 13 | 290 | 11.3 | 11.3 | 0.00 | 0.28 | 0.08 | 91 | 1011.2 |
| 20260507132204 | 13 | 290 | 11.3 | 11.3 | 0.00 | 0.28 | 0.08 | 92 | 1011.3 |
| 20260507131704 | 13 | 290 | 11.3 | 11.3 | 0.00 | 0.30 | 0.08 | 92 | 1011.2 |
| 20260507131205 | 13 | 290 | 11.3 | 11.3 | 0.00 | 0.30 | 0.08 | 93 | 1011.3 |
| 20260507130204 | 13 | 289 | 8.0 | 11.3 | 0.00 | 0.30 | 0.08 | 94 | 1011.1 |
| 20260507125704 | 13 | 270 | 4.8 | 4.8 | 0.00 | 0.30 | 0.08 | 95 | 1011.0 |
| 20260507125205 | 13 | 270 | 4.8 | 4.8 | 0.00 | 0.33 | 0.08 | 95 | 1011.4 |
| 20260507124704 | 13 | 270 | 4.8 | 4.8 | 0.00 | 0.33 | 0.08 | 95 | 1011.5 |
| 20260507124205 | 13 | 270 | 4.8 | 4.8 | 0.00 | 0.33 | 0.08 | 95 | 1011.3 |
| 20260507123704 | 12 | 270 | 4.8 | 4.8 | 0.00 | 0.33 | 0.08 | 95 | 1011.3 |
| 20260507123205 | 12 | 270 | 4.8 | 4.8 | 0.00 | 0.36 | 0.08 | 95 | 1011.6 |
| 20260507122706 | 12 | 270 | 4.8 | 4.8 | 0.00 | 0.36 | 0.08 | 95 | 1011.5 |
| 20260507122205 | 12 | 270 | 4.8 | 4.8 | 0.00 | 0.36 | 0.08 | 95 | 1011.8 |
| 20260507121705 | 12 | 270 | 4.8 | 4.8 | 0.00 | 0.36 | 0.08 | 95 | 1012.1 |
| 20260507120704 | 12 | 270 | 4.8 | 4.8 | 0.00 | 0.36 | 0.08 | 95 | 1012.1 |
| 20260507120205 | 13 | 270 | 4.8 | 4.8 | 0.00 | 0.36 | 0.08 | 96 | 1012.1 |
| 20260507115704 | 12 | 270 | 4.8 | 4.8 | 0.00 | 0.36 | 0.08 | 96 | 1011.9 |
| 20260507115204 | 12 | 270 | 4.8 | 4.8 | 0.00 | 0.36 | 0.08 | 95 | 1011.9 |
| 20260507114704 | 13 | 270 | 4.8 | 4.8 | 0.00 | 0.38 | 0.08 | 96 | 1011.7 |
| 20260507114204 | 13 | 270 | 4.8 | 4.8 | 0.00 | 0.38 | 0.08 | 96 | 1011.7 |
| 20260507113704 | 12 | 270 | 4.8 | 4.8 | 0.00 | 0.38 | 0.08 | 96 | 1011.7 |
| 20260507113204 | 12 | 270 | 4.8 | 4.8 | 0.00 | 0.41 | 0.08 | 96 | 1011.8 |
| 20260507112204 | 12 | 270 | 4.8 | 4.8 | 0.00 | 0.43 | 0.08 | 96 | 1011.5 |
| 20260507111704 | 12 | 270 | 4.8 | 4.8 | 0.00 | 0.43 | 0.08 | 96 | 1011.3 |
| 20260507110204 | 12 | 275 | 8.0 | 11.3 | 0.00 | 0.43 | 0.08 | 96 | 1011.3 |
| 20260507105704 | 12 | 330 | 11.3 | 11.3 | 0.00 | 0.43 | 0.08 | 96 | 1011.0 |
| 20260507105204 | 12 | 330 | 11.3 | 11.3 | 0.00 | 0.43 | 0.08 | 96 | 1011.2 |
| 20260507104704 | 12 | 330 | 11.3 | 11.3 | 0.00 | 0.43 | 0.08 | 96 | 1011.5 |
| 20260507104204 | 12 | 330 | 11.3 | 11.3 | 0.00 | 0.43 | 0.08 | 96 | 1011.5 |
| 20260507103705 | 12 | 330 | 11.3 | 11.3 | 0.00 | 0.43 | 0.08 | 95 | 1011.4 |
| 20260507102704 | 12 | 330 | 11.3 | 11.3 | 0.00 | 0.43 | 0.08 | 95 | 1011.2 |
| 20260507102204 | 13 | 330 | 11.3 | 11.3 | 0.03 | 0.43 | 0.08 | 96 | 1011.1 |
| 20260507101705 | 13 | 330 | 11.3 | 11.3 | 0.03 | 0.43 | 0.08 | 95 | 1011.1 |
| 20260507101204 | 13 | 330 | 11.3 | 11.3 | 0.03 | 0.43 | 0.08 | 95 | 1011.2 |
| 20260507100704 | 13 | 330 | 9.7 | 11.3 | 0.03 | 0.43 | 0.08 | 95 | 1011.1 |
| 20260507100204 | 13 | 330 | 11.3 | 11.3 | 0.03 | 0.43 | 0.08 | 95 | 1011.0 |
| 20260507095705 | 13 | 330 | 11.3 | 11.3 | 0.03 | 0.43 | 0.08 | 96 | 1011.0 |
| 20260507094704 | 13 | 330 | 11.3 | 11.3 | 0.03 | 0.43 | 0.08 | 96 | 1011.3 |
| 20260507094204 | 13 | 330 | 11.3 | 11.3 | 0.03 | 0.43 | 0.08 | 96 | 1011.2 |
| 20260507093205 | 13 | 330 | 11.3 | 11.3 | 0.03 | 0.43 | 0.08 | 96 | 1011.2 |
| 20260507092705 | 13 | 330 | 11.3 | 11.3 | 0.03 | 0.43 | 0.08 | 96 | 1011.1 |
| 20260507092204 | 13 | 330 | 11.3 | 11.3 | 0.03 | 0.41 | 0.05 | 96 | 1011.3 |
| 20260507091704 | 13 | 330 | 11.3 | 11.3 | 0.03 | 0.41 | 0.05 | 96 | 1011.1 |
| 20260507090704 | 13 | 330 | 11.3 | 11.3 | 0.03 | 0.41 | 0.05 | 96 | 1011.1 |
| 20260507090205 | 13 | 328 | 9.7 | 11.3 | 0.03 | 0.41 | 0.05 | 95 | 1011.1 |
| 20260507085204 | 13 | 270 | 9.7 | 9.7 | 0.03 | 0.41 | 0.05 | 95 | 1010.9 |
| 20260507084705 | 13 | 270 | 9.7 | 9.7 | 0.03 | 0.41 | 0.05 | 95 | 1011.0 |
| 20260507084204 | 13 | 270 | 9.7 | 9.7 | 0.03 | 0.41 | 0.05 | 95 | 1011.1 |
| 20260507083705 | 13 | 270 | 9.7 | 9.7 | 0.03 | 0.41 | 0.05 | 96 | 1011.5 |
| 20260507083205 | 13 | 270 | 9.7 | 9.7 | 0.03 | 0.43 | 0.05 | 96 | 1011.4 |
| 20260507082704 | 13 | 270 | 9.7 | 9.7 | 0.03 | 0.43 | 0.05 | 96 | 1011.4 |
| 20260507082204 | 13 | 270 | 9.7 | 9.7 | 0.00 | 0.41 | 0.03 | 96 | 1011.4 |
| 20260507081704 | 13 | 270 | 9.7 | 9.7 | 0.00 | 0.41 | 0.03 | 96 | 1011.4 |
| 20260507080705 | 13 | 270 | 9.7 | 9.7 | 0.00 | 0.41 | 0.03 | 96 | 1011.6 |
| 20260507080205 | 13 | 270 | 9.7 | 9.7 | 0.00 | 0.41 | 0.03 | 95 | 1011.6 |
| 20260507075205 | 13 | 270 | 9.7 | 9.7 | 0.00 | 0.41 | 0.03 | 95 | 1011.8 |
| 20260507074705 | 13 | 270 | 9.7 | 9.7 | 0.00 | 0.41 | 0.03 | 95 | 1012.0 |
| 20260507074205 | 13 | 270 | 9.7 | 9.7 | 0.00 | 0.41 | 0.03 | 95 | 1011.8 |
| 20260507073705 | 13 | 270 | 9.7 | 9.7 | 0.00 | 0.41 | 0.03 | 95 | 1011.6 |
| 20260507073205 | 13 | 270 | 9.7 | 9.7 | 0.00 | 0.41 | 0.03 | 95 | 1011.5 |
| 20260507072704 | 13 | 270 | 9.7 | 9.7 | 0.00 | 0.41 | 0.03 | 95 | 1011.8 |
| 20260507072205 | 13 | 270 | 9.7 | 9.7 | 0.00 | 0.41 | 0.03 | 95 | 1011.8 |
| 20260507071704 | 13 | 270 | 9.7 | 9.7 | 0.00 | 0.41 | 0.03 | 95 | 1011.9 |
| 20260507071204 | 12 | 270 | 9.7 | 9.7 | 0.00 | 0.41 | 0.03 | 95 | 1011.9 |
| 20260507070705 | 12 | 270 | 9.7 | 9.7 | 0.00 | 0.41 | 0.03 | 95 | 1011.8 |
| 20260507070205 | 12 | 269 | 8.0 | 9.7 | 0.00 | 0.41 | 0.03 | 95 | 1011.8 |
| 20260507065704 | 12 | 250 | 8.0 | 8.0 | 0.00 | 0.41 | 0.03 | 95 | 1011.5 |
| 20260507064705 | 12 | 250 | 8.0 | 8.0 | 0.00 | 0.41 | 0.03 | 95 | 1011.9 |
| 20260507064204 | 12 | 250 | 8.0 | 8.0 | 0.00 | 0.41 | 0.03 | 95 | 1011.8 |
| 20260507063704 | 12 | 250 | 8.0 | 8.0 | 0.00 | 0.41 | 0.03 | 95 | 1011.9 |
| 20260507063205 | 12 | 250 | 8.0 | 8.0 | 0.00 | 0.41 | 0.03 | 95 | 1012.2 |
| 20260507062704 | 12 | 250 | 8.0 | 8.0 | 0.00 | 0.41 | 0.03 | 95 | 1012.3 |
| 20260507062207 | 12 | 250 | 8.0 | 8.0 | 0.00 | 0.41 | 0.03 | 95 | 1012.4 |
| 20260507061704 | 12 | 250 | 8.0 | 8.0 | 0.03 | 0.41 | 0.03 | 95 | 1012.3 |
| 20260507061205 | 12 | 250 | 8.0 | 8.0 | 0.03 | 0.41 | 0.03 | 95 | 1012.3 |
| 20260507060705 | 12 | 250 | 8.0 | 8.0 | 0.03 | 0.41 | 0.03 | 95 | 1012.3 |
| 20260507060204 | 12 | 252 | 11.3 | 14.5 | 0.03 | 0.41 | 0.03 | 95 | 1012.2 |
| 20260507055705 | 12 | 270 | 14.5 | 14.5 | 0.03 | 0.41 | 0.03 | 95 | 1012.1 |
| 20260507055204 | 13 | 270 | 14.5 | 14.5 | 0.03 | 0.41 | 0.03 | 95 | 1012.2 |
| 20260507054204 | 13 | 270 | 14.5 | 14.5 | 0.03 | 0.41 | 0.03 | 94 | 1012.4 |
| 20260507053204 | 13 | 270 | 14.5 | 14.5 | 0.03 | 0.41 | 0.03 | 94 | 1013.0 |
| 20260507052204 | 13 | 270 | 14.5 | 14.5 | 0.03 | 0.41 | 0.03 | 93 | 1012.9 |
| 20260507051704 | 13 | 270 | 14.5 | 14.5 | 0.00 | 0.38 | 0.00 | 93 | 1013.0 |
| 20260507051204 | 13 | 270 | 14.5 | 14.5 | 0.00 | 0.38 | 0.00 | 93 | 1012.7 |
| 20260507050205 | 13 | 270 | 9.7 | 14.5 | 0.00 | 0.38 | 0.00 | 94 | 1013.2 |
| 20260507045705 | 13 | 280 | 4.8 | 4.8 | 0.00 | 0.38 | 0.00 | 94 | 1013.2 |
| 20260507045205 | 13 | 280 | 4.8 | 4.8 | 0.00 | 0.38 | 0.00 | 94 | 1013.3 |
| 20260507044704 | 13 | 280 | 4.8 | 4.8 | 0.00 | 0.38 | 0.00 | 94 | 1013.3 |
| 20260507044205 | 13 | 280 | 4.8 | 4.8 | 0.00 | 0.38 | 0.00 | 94 | 1013.4 |
| 20260507043704 | 13 | 280 | 4.8 | 4.8 | 0.00 | 0.38 | 0.00 | 94 | 1013.6 |
| 20260507043205 | 13 | 280 | 4.8 | 4.8 | 0.00 | 0.38 | 0.00 | 94 | 1013.7 |
| 20260507042704 | 13 | 280 | 4.8 | 4.8 | 0.00 | 0.38 | 0.00 | 94 | 1013.8 |
| 20260507042205 | 13 | 280 | 4.8 | 4.8 | 0.00 | 0.38 | 0.00 | 94 | 1013.8 |
| 20260507041704 | 13 | 280 | 4.8 | 4.8 | 0.00 | 0.38 | 0.00 | 94 | 1013.7 |
| 20260507041204 | 14 | 280 | 4.8 | 4.8 | 0.03 | 0.38 | 0.00 | 94 | 1013.7 |
| 20260507040205 | 14 | 278 | 9.7 | 14.5 | 0.03 | 0.38 | 0.00 | 94 | 1013.6 |
| 20260507035704 | 14 | 250 | 14.5 | 14.5 | 0.03 | 0.38 | 0.38 | 94 | 1013.5 |
| 20260507035204 | 14 | 250 | 14.5 | 14.5 | 0.03 | 0.38 | 0.38 | 94 | 1013.4 |
| 20260507034704 | 14 | 250 | 14.5 | 14.5 | 0.05 | 0.38 | 0.38 | 94 | 1014.0 |
| 20260507034204 | 14 | 250 | 14.5 | 14.5 | 0.05 | 0.38 | 0.38 | 94 | 1013.8 |
| 20260507033704 | 14 | 250 | 14.5 | 14.5 | 0.05 | 0.38 | 0.38 | 94 | 1013.7 |
| 20260507033204 | 14 | 250 | 14.5 | 14.5 | 0.05 | 0.38 | 0.38 | 94 | 1013.4 |
| 20260507031704 | 14 | 250 | 14.5 | 14.5 | 0.08 | 0.38 | 0.38 | 94 | 1013.4 |
| 20260507031204 | 14 | 250 | 14.5 | 14.5 | 0.05 | 0.36 | 0.36 | 94 | 1013.3 |
| 20260507030705 | 14 | 250 | 14.5 | 14.5 | 0.05 | 0.36 | 0.36 | 93 | 1013.5 |
| 20260507030205 | 14 | 249 | 16.1 | 33.8 | 0.08 | 0.36 | 0.36 | 93 | 1013.3 |
| 20260507025704 | 14 | 240 | 16.1 | 33.8 | 0.08 | 0.36 | 0.36 | 93 | 1013.2 |
| 20260507024704 | 14 | 240 | 16.1 | 33.8 | 0.05 | 0.33 | 0.33 | 93 | 1013.2 |
| 20260507023705 | 15 | 240 | 16.1 | 33.8 | 0.05 | 0.33 | 0.33 | 92 | 1013.5 |
| 20260507023205 | 15 | 240 | 16.1 | 33.8 | 0.08 | 0.33 | 0.33 | 92 | 1013.6 |
| 20260507022704 | 15 | 240 | 16.1 | 33.8 | 0.05 | 0.30 | 0.30 | 92 | 1013.9 |
| 20260507022205 | 15 | 240 | 16.1 | 33.8 | 0.05 | 0.30 | 0.30 | 92 | 1014.7 |
| 20260507021704 | 15 | 240 | 16.1 | 33.8 | 0.05 | 0.30 | 0.30 | 92 | 1014.8 |
| 20260507021204 | 15 | 240 | 16.1 | 33.8 | 0.08 | 0.30 | 0.30 | 93 | 1014.6 |
| 20260507020704 | 15 | 240 | 16.1 | 33.8 | 0.08 | 0.30 | 0.30 | 92 | 1014.6 |
| 20260507020204 | 15 | 240 | 14.5 | 33.8 | 0.05 | 0.28 | 0.28 | 92 | 1014.3 |
| 20260507015705 | 15 | 250 | 11.3 | 11.3 | 0.05 | 0.28 | 0.28 | 92 | 1014.1 |
| 20260507015204 | 15 | 250 | 11.3 | 11.3 | 0.05 | 0.28 | 0.28 | 92 | 1014.1 |
| 20260507014204 | 15 | 250 | 11.3 | 11.3 | 0.05 | 0.28 | 0.28 | 91 | 1013.8 |
| 20260507013704 | 15 | 250 | 11.3 | 11.3 | 0.05 | 0.28 | 0.28 | 91 | 1013.7 |
| 20260507013204 | 15 | 250 | 11.3 | 11.3 | 0.03 | 0.25 | 0.25 | 90 | 1013.7 |
| 20260507012705 | 15 | 250 | 11.3 | 11.3 | 0.03 | 0.25 | 0.25 | 90 | 1013.5 |
| 20260507012204 | 15 | 250 | 11.3 | 11.3 | 0.03 | 0.25 | 0.25 | 89 | 1013.6 |
| 20260507011704 | 15 | 250 | 11.3 | 11.3 | 0.03 | 0.25 | 0.25 | 88 | 1013.5 |
| 20260507010704 | 16 | 250 | 11.3 | 11.3 | 0.00 | 0.23 | 0.23 | 87 | 1013.8 |
| 20260507010205 | 16 | 249 | 8.0 | 11.3 | 0.00 | 0.23 | 0.23 | 86 | 1013.9 |
| 20260507005705 | 16 | 220 | 4.8 | 4.8 | 0.00 | 0.23 | 0.23 | 86 | 1014.0 |
| 20260507004705 | 16 | 220 | 4.8 | 4.8 | 0.00 | 0.23 | 0.23 | 85 | 1012.9 |
| 20260507004204 | 16 | 220 | 4.8 | 4.8 | 0.00 | 0.23 | 0.23 | 83 | 1013.3 |
| 20260507003205 | 16 | 220 | 4.8 | 4.8 | 0.00 | 0.23 | 0.23 | 84 | 1012.8 |
| 20260507002706 | 16 | 220 | 4.8 | 4.8 | 0.00 | 0.23 | 0.23 | 83 | 1013.0 |
| 20260507002204 | 16 | 220 | 4.8 | 4.8 | 0.00 | 0.23 | 0.23 | 83 | 1013.0 |
| 20260507001705 | 16 | 220 | 4.8 | 4.8 | 0.00 | 0.23 | 0.23 | 83 | 1013.1 |
| 20260507001204 | 16 | 220 | 4.8 | 4.8 | 0.00 | 0.23 | 0.23 | 85 | 1013.2 |
| 20260507000704 | 16 | 220 | 4.8 | 4.8 | 0.00 | 0.23 | 0.23 | 86 | 1013.2 |
| 20260507000205 | 16 | 224 | 8.0 | 11.3 | 0.00 | 0.23 | 0.23 | 85 | 1013.1 |
| 20260506235704 | 16 | 260 | 11.3 | 11.3 | 0.00 | 0.23 | 0.23 | 85 | 1013.0 |
| 20260506235204 | 16 | 260 | 11.3 | 11.3 | 0.00 | 0.23 | 0.23 | 83 | 1012.8 |
| 20260506234705 | 16 | 260 | 11.3 | 11.3 | 0.00 | 0.23 | 0.23 | 83 | 1012.7 |
| 20260506233705 | 17 | 260 | 11.3 | 11.3 | 0.00 | 0.23 | 0.23 | 83 | 1013.0 |
| 20260506233205 | 17 | 260 | 11.3 | 11.3 | 0.00 | 0.23 | 0.23 | 84 | 1013.2 |
| 20260506232704 | 17 | 260 | 11.3 | 11.3 | 0.00 | 0.23 | 0.23 | 82 | 1013.0 |
| 20260506232205 | 17 | 260 | 11.3 | 11.3 | 0.00 | 0.23 | 0.23 | 82 | 1012.7 |
| 20260506231705 | 17 | 260 | 11.3 | 11.3 | 0.00 | 0.23 | 0.23 | 81 | 1012.5 |
| 20260506230704 | 17 | 260 | 11.3 | 11.3 | 0.00 | 0.23 | 0.23 | 79 | 1012.8 |
| 20260506230205 | 17 | 259 | 16.1 | 37.0 | 0.00 | 0.23 | 0.23 | 81 | 1013.0 |